This is the latest recevied weather packets stored in our database for station/object WX5KDM. If no packets are shown the sender has not sent any weather packets the latest 10 day(s).
| Time | Temp. | Humidity | Pressure | Rain* | Wind** | Luminosity | Snow |
|---|---|---|---|---|---|---|---|
| 1778182846 | 20.56° C | 53% | 1016.1 hPa | 0 mm | - | - | - |
| 1778182543 | 21.11° C | 50% | 1016.5 hPa | 0 mm | - | - | - |
| 1778182240 | 20.56° C | 56% | 1016.4 hPa | 0 mm | - | - | - |
| 1778181936 | 21.67° C | 51% | 1016.3 hPa | 0 mm | - | - | - |
| 1778181633 | 21.67° C | 51% | 1016.3 hPa | 0 mm | - | - | - |
| 1778181329 | 21.67° C | 49% | 1016.2 hPa | 0 mm | - | - | - |
| 1778181026 | 21.11° C | 54% | 1016.1 hPa | 0 mm | - | - | - |
| 1778180723 | 21.11° C | 56% | 1016.3 hPa | 0 mm | - | - | - |
| 1778180422 | 21.11° C | 53% | 1016.4 hPa | 0 mm | - | - | - |
| 1778180120 | 20.56° C | 53% | 1016.5 hPa | 0 mm | - | - | - |
| 1778179816 | 20° C | 56% | 1016.5 hPa | 0 mm | - | - | - |
| 1778179514 | 20.56° C | 55% | 1016.5 hPa | 0 mm | - | - | - |
| 1778179212 | 21.11° C | 53% | 1016.5 hPa | 0 mm | - | - | - |
| 1778178908 | 20.56° C | 57% | 1016.3 hPa | 0 mm | - | - | - |
| 1778178605 | 20.56° C | 51% | 1016.4 hPa | 0 mm | - | - | - |
| 1778178301 | 20.56° C | 56% | 1016.6 hPa | 0 mm | - | - | - |
| 1778177997 | 20.56° C | 55% | 1016.4 hPa | 0 mm | - | - | - |
| 1778177694 | 20° C | 55% | 1016.4 hPa | 0 mm | - | - | - |
| 1778177390 | 20.56° C | 55% | 1016.3 hPa | 0 mm | - | - | - |
| 1778177087 | 20.56° C | 56% | 1016.4 hPa | 0 mm | - | - | - |
| 1778176783 | 20° C | 54% | 1016.5 hPa | 0 mm | - | - | - |
| 1778176480 | 20° C | 53% | 1016.5 hPa | 0 mm | - | - | - |
| 1778176178 | 19.44° C | 59% | 1016.6 hPa | 0 mm | - | - | - |
| 1778175875 | 18.89° C | 55% | 1016.6 hPa | 0 mm | - | - | - |
| 1778175572 | 18.89° C | 53% | 1016.7 hPa | 0 mm | - | - | - |
* Rain latest hour (hover to see other rain measurements)
** Current wind speed in m/s (hover to see current wind gust speed)